Startpagina
METAR-TAF:

METAR-TAF

Vliegvelden :

Vliegbasis Woensdrecht

Woensdrecht, Nederland

breedte: 51-27N, lengte: 004-20E, hoogte: 20 m

Actueel weer

Dit bericht is 20 minuten geleden gemaakt, om 07:25 UTC
Wind 5 kt uit het zuidzuidoosten, variërend tussen het oostzuidoosten en het zuidzuidwesten
Temperatuur 8°C
Vochtigheid 87%
Druk 1021 hPa
Zicht 10 km of meer
Geheel bewolkt op 23000 ft

METAR: EHWO 180725Z AUTO 16005KT 120V200 9999 OVC230 08/06 Q1021 BLU NOSIG

Tijdstip: 09:45 (07:45 UTC)

Verwachting

Dit bericht is 3 uur en het 7 minuten geleden gemaakt, om 04:38 UTC
Verwachting geldig van 18 om 05 UTC tot 18 om 17 UTC
Wind 6 kt uit het zuiden
Zicht 10 km of meer
geen wolken onder 1500 m en geen cumulonimbus

TAF: EHWO 180438Z 1805/1817 17006KT CAVOK

Waarnemingen en weersverwachtingen van meer dan 4000 vliegvelden (METAR en TAF).

De beschikbare stations zijn de gele en rode punten op de kaart.

Ga met uw muis naar het station om de naam te zien.

Klik dan om waarnemingen en weersverwachtingen te zien.

kaart wijzigen: klik op de groene knoppen met een zwart kruis om in te zoomen, op de groene knop met een streepje om uit te zoomen of op de groene pijlen voor aangrenzende kaarten.


METAR-TAF: